Time;durP1;ratioP1;P1;durP2;ratioP2;P2;SDS_P1;SDS_P2;PMS_P1;PMS_P2;Temp;Humidity;BMP_temperature;BMP_pressure;BME280_temperature;BME280_humidity;BME280_pressure;Samples;Min_cycle;Max_cycle;Signal;HPM_P1;HPM_P2
2020/12/11 00:02:22;;;;;;;17.95;12.68;;;1.70;91.10;;;;;;4995550;28;20379;-85
2020/12/11 00:04:48;;;;;;;17.58;12.88;;;1.60;91.10;;;;;;5006555;28;20030;-85
2020/12/11 00:07:13;;;;;;;19.38;13.10;;;1.60;91.10;;;;;;5011450;28;20352;-88
2020/12/11 00:09:39;;;;;;;18.58;13.15;;;1.60;91.00;;;;;;5007620;28;20494;-85
2020/12/11 00:12:05;;;;;;;16.95;13.13;;;1.60;91.00;;;;;;5010768;28;20022;-84
2020/12/11 00:14:31;;;;;;;18.50;13.80;;;1.60;91.00;;;;;;5008715;28;20034;-83
2020/12/11 00:16:56;;;;;;;19.02;12.95;;;1.60;91.00;;;;;;4995270;28;20038;-84
2020/12/11 00:19:22;;;;;;;21.30;13.73;;;1.60;91.00;;;;;;4976303;28;20045;-84
2020/12/11 00:21:51;;;;;;;18.13;13.23;;;1.60;91.00;;;;;;4986280;28;20030;-89
2020/12/11 00:24:17;;;;;;;19.27;13.98;;;1.60;91.00;;;;;;5011079;28;20099;-86
2020/12/11 00:26:44;;;;;;;19.20;13.27;;;1.60;91.00;;;;;;4994796;28;20030;-84
2020/12/11 00:29:10;;;;;;;18.17;12.95;;;1.60;91.00;;;;;;4994816;28;20566;-84
2020/12/11 00:31:38;;;;;;;19.63;13.50;;;1.60;91.00;;;;;;4993831;28;20062;-84
2020/12/11 00:34:03;;;;;;;18.30;13.43;;;1.60;91.00;;;;;;5011343;28;20117;-85
2020/12/11 00:36:29;;;;;;;21.27;14.05;;;1.60;91.00;;;;;;4999598;28;20489;-87
2020/12/11 00:38:55;;;;;;;20.60;14.85;;;1.60;91.00;;;;;;4994004;28;20113;-85
2020/12/11 00:41:20;;;;;;;20.10;13.60;;;1.60;91.00;;;;;;5012186;28;20036;-84
2020/12/11 00:43:49;;;;;;;19.70;14.48;;;1.60;91.00;;;;;;5008081;28;20030;-85
2020/12/11 00:46:23;;;;;;;20.05;14.32;;;1.60;91.00;;;;;;5001613;28;20049;-85
2020/12/11 00:48:49;;;;;;;21.52;15.05;;;1.60;91.00;;;;;;5005642;28;20398;-85
2020/12/11 00:51:18;;;;;;;19.50;14.07;;;1.60;91.00;;;;;;5010819;28;20018;-84
2020/12/11 00:53:44;;;;;;;21.27;15.30;;;1.60;91.00;;;;;;5001728;28;20026;-84
2020/12/11 00:56:10;;;;;;;19.95;14.15;;;1.60;91.00;;;;;;5007097;28;20104;-85
2020/12/11 00:58:35;;;;;;;21.88;15.10;;;1.60;91.00;;;;;;5000419;28;20057;-85
2020/12/11 01:01:01;;;;;;;21.20;14.82;;;1.70;91.00;;;;;;4994842;28;20061;-86
2020/12/11 01:03:27;;;;;;;23.08;15.32;;;1.70;91.00;;;;;;5005457;28;20030;-84
2020/12/11 01:05:52;;;;;;;19.95;14.73;;;1.60;91.00;;;;;;4985819;28;20030;-88
2020/12/11 01:08:18;;;;;;;20.55;14.30;;;1.60;91.00;;;;;;5008043;28;20452;-88
2020/12/11 01:10:44;;;;;;;21.65;14.32;;;1.70;91.00;;;;;;5007498;28;20108;-85
2020/12/11 01:13:09;;;;;;;23.08;15.93;;;1.70;91.00;;;;;;4999986;28;20044;-86
2020/12/11 01:15:35;;;;;;;20.27;14.15;;;1.60;90.90;;;;;;4996246;28;20033;-85
2020/12/11 01:18:04;;;;;;;22.95;15.38;;;1.60;90.90;;;;;;5007772;28;20396;-86
2020/12/11 01:20:29;;;;;;;22.55;14.50;;;1.70;90.90;;;;;;4993499;28;20026;-85
2020/12/11 01:22:55;;;;;;;21.20;14.38;;;1.60;90.90;;;;;;5011895;28;20041;-84
2020/12/11 01:25:20;;;;;;;23.25;15.10;;;1.70;90.90;;;;;;5017271;28;20033;-85
2020/12/11 01:27:46;;;;;;;22.05;15.38;;;1.70;90.90;;;;;;5004381;28;20464;-84
2020/12/11 01:30:14;;;;;;;21.00;14.45;;;1.70;90.90;;;;;;4996184;28;20469;-86
2020/12/11 01:32:40;;;;;;;22.25;15.23;;;1.70;90.90;;;;;;5002171;28;20037;-85
2020/12/11 01:35:06;;;;;;;20.92;14.32;;;1.70;90.90;;;;;;5007046;28;20030;-87
2020/12/11 01:37:33;;;;;;;19.17;13.82;;;1.70;90.90;;;;;;5013440;28;20030;-84
2020/12/11 01:39:59;;;;;;;21.10;15.43;;;1.70;90.90;;;;;;5008238;28;20391;-85
2020/12/11 01:42:24;;;;;;;19.63;13.90;;;1.70;90.90;;;;;;4994953;28;20038;-84
2020/12/11 01:44:51;;;;;;;22.05;14.70;;;1.70;90.90;;;;;;5004827;28;20026;-84
2020/12/11 01:47:18;;;;;;;19.80;14.25;;;1.70;90.80;;;;;;5014577;28;20033;-84
2020/12/11 01:49:47;;;;;;;22.80;15.05;;;1.70;90.80;;;;;;4998119;28;20121;-84
2020/12/11 01:52:17;;;;;;;22.17;14.95;;;1.70;90.80;;;;;;5016355;28;20089;-84
2020/12/11 01:54:46;;;;;;;21.85;15.68;;;1.70;90.80;;;;;;5009189;28;20030;-84
2020/12/11 01:57:58;;;;;;;22.35;16.05;;;1.70;90.80;;;;;;4996433;28;20038;-86
2020/12/11 02:00:24;;;;;;;19.55;13.90;;;1.70;90.80;;;;;;4974040;28;20027;-83
2020/12/11 02:03:01;;;;;;;21.25;14.52;;;1.60;90.70;;;;;;4919898;29;20547;-85
2020/12/11 02:05:27;;;;;;;21.35;14.90;;;1.70;90.80;;;;;;4979844;28;20387;-83
2020/12/11 02:07:52;;;;;;;21.98;14.73;;;1.60;90.70;;;;;;4985473;28;20034;-83
2020/12/11 02:10:18;;;;;;;22.27;15.82;;;1.60;90.70;;;;;;5015233;28;20804;-84
2020/12/11 02:12:43;;;;;;;20.48;14.52;;;1.60;90.70;;;;;;4997538;28;20036;-84
2020/12/11 02:15:09;;;;;;;22.85;15.32;;;1.60;90.70;;;;;;4998392;28;20595;-84
2020/12/11 02:17:38;;;;;;;22.75;15.45;;;1.60;90.70;;;;;;4982374;28;20099;-83
2020/12/11 02:20:04;;;;;;;22.75;15.93;;;1.60;90.80;;;;;;5012742;28;20553;-84
2020/12/11 02:22:29;;;;;;;22.85;15.32;;;1.60;90.70;;;;;;5015840;28;20053;-84
2020/12/11 02:24:55;;;;;;;22.85;15.25;;;1.60;90.70;;;;;;4988670;28;20417;-84
2020/12/11 02:27:20;;;;;;;21.10;15.15;;;1.60;90.70;;;;;;4994871;28;20488;-84
2020/12/11 02:29:46;;;;;;;21.80;14.30;;;1.60;90.70;;;;;;5014001;28;20042;-84
2020/12/11 02:32:14;;;;;;;22.35;15.18;;;1.60;90.70;;;;;;5003537;28;20034;-87
2020/12/11 02:34:41;;;;;;;24.70;16.38;;;1.60;90.70;;;;;;5025239;28;20038;-84
2020/12/11 02:37:07;;;;;;;24.30;15.98;;;1.60;90.70;;;;;;4997400;28;20130;-84
2020/12/11 02:39:32;;;;;;;21.83;15.23;;;1.60;90.70;;;;;;5011700;28;20490;-86
2020/12/11 02:41:58;;;;;;;18.97;14.13;;;1.60;90.70;;;;;;5010225;28;20026;-84
2020/12/11 02:44:27;;;;;;;21.17;15.15;;;1.60;90.70;;;;;;5016816;28;20080;-85
2020/12/11 02:46:52;;;;;;;19.83;13.73;;;1.60;90.70;;;;;;4981890;28;20025;-84
2020/12/11 02:49:18;;;;;;;21.67;14.10;;;1.60;90.70;;;;;;4993080;28;20042;-86
2020/12/11 02:51:44;;;;;;;21.05;14.27;;;1.60;90.70;;;;;;4993985;28;20030;-84
2020/12/11 02:54:10;;;;;;;20.50;14.55;;;1.60;90.70;;;;;;5004432;28;20030;-85
2020/12/11 02:56:35;;;;;;;19.80;14.18;;;1.60;90.70;;;;;;5006709;28;20024;-84
2020/12/11 02:59:01;;;;;;;22.00;15.48;;;1.60;90.70;;;;;;4993321;28;20034;-87
2020/12/11 03:01:27;;;;;;;23.20;15.55;;;1.60;90.70;;;;;;5012874;28;20058;-85
2020/12/11 03:03:55;;;;;;;21.02;14.85;;;1.60;90.70;;;;;;5012848;28;20129;-85
2020/12/11 03:06:30;;;;;;;22.27;14.75;;;1.60;90.70;;;;;;5012783;28;20025;-84
2020/12/11 03:08:56;;;;;;;21.95;15.25;;;1.60;90.70;;;;;;5013299;28;20067;-84
2020/12/11 03:11:22;;;;;;;21.42;14.45;;;1.60;90.70;;;;;;4993426;28;20446;-85
2020/12/11 03:13:47;;;;;;;19.58;13.68;;;1.60;90.70;;;;;;5029771;28;20117;-85
2020/12/11 03:16:16;;;;;;;21.13;14.77;;;1.50;90.60;;;;;;5013528;28;20044;-85
2020/12/11 03:18:42;;;;;;;20.50;14.23;;;1.50;90.60;;;;;;5008760;28;20050;-85
2020/12/11 03:21:08;;;;;;;22.02;15.60;;;1.60;90.70;;;;;;5008186;28;20033;-84
2020/12/11 03:23:33;;;;;;;20.77;14.23;;;1.50;90.70;;;;;;4980588;28;20026;-83
2020/12/11 03:25:59;;;;;;;21.40;14.43;;;1.60;90.70;;;;;;5018347;28;20080;-84
2020/12/11 03:28:24;;;;;;;19.42;14.35;;;1.50;90.70;;;;;;4986202;28;20688;-84
2020/12/11 03:30:50;;;;;;;20.77;14.43;;;1.50;90.70;;;;;;5000546;28;20078;-85
2020/12/11 03:33:16;;;;;;;22.17;15.95;;;1.50;90.60;;;;;;5011084;28;20064;-85
2020/12/11 03:35:41;;;;;;;21.15;14.73;;;1.50;90.60;;;;;;5010978;28;20419;-85
2020/12/11 03:38:07;;;;;;;21.13;14.70;;;1.50;90.60;;;;;;4975526;28;20068;-86
2020/12/11 03:40:33;;;;;;;20.75;12.98;;;1.50;90.60;;;;;;5001825;28;20038;-85
2020/12/11 03:42:58;;;;;;;20.80;13.93;;;1.50;90.60;;;;;;4979073;28;20156;-85
2020/12/11 03:45:24;;;;;;;21.65;14.68;;;1.50;90.60;;;;;;4996249;28;20045;-84
2020/12/11 03:47:49;;;;;;;19.40;13.70;;;1.50;90.60;;;;;;4980006;28;20037;-85
2020/12/11 03:50:17;;;;;;;19.63;13.57;;;1.50;90.60;;;;;;4992047;28;20038;-84
2020/12/11 03:52:43;;;;;;;18.77;13.10;;;1.50;90.60;;;;;;5005180;28;20030;-84
2020/12/11 03:55:08;;;;;;;19.60;13.90;;;1.40;90.60;;;;;;4998415;28;20383;-88
2020/12/11 03:57:34;;;;;;;20.55;14.60;;;1.40;90.60;;;;;;4978635;28;20353;-84
2020/12/11 04:00:00;;;;;;;19.40;13.55;;;1.40;90.60;;;;;;5012767;28;20045;-84
2020/12/11 04:02:25;;;;;;;20.63;14.63;;;1.50;90.60;;;;;;4994643;28;20034;-84
2020/12/11 04:04:51;;;;;;;20.95;15.02;;;1.40;90.60;;;;;;4999399;28;20092;-85
2020/12/11 04:07:17;;;;;;;22.52;14.60;;;1.40;90.60;;;;;;4998899;28;20072;-84
2020/12/11 04:09:42;;;;;;;21.03;14.77;;;1.40;90.60;;;;;;4995279;28;20042;-84
2020/12/11 04:12:08;;;;;;;20.55;14.63;;;1.40;90.60;;;;;;4992446;28;20037;-83
2020/12/11 04:14:34;;;;;;;20.48;14.20;;;1.40;90.60;;;;;;5003304;28;20038;-84
2020/12/11 04:16:59;;;;;;;20.35;15.65;;;1.30;90.60;;;;;;5012311;28;20045;-84
2020/12/11 04:19:26;;;;;;;20.83;14.90;;;1.30;90.60;;;;;;4981644;28;20041;-84
2020/12/11 04:21:55;;;;;;;21.33;14.82;;;1.30;90.60;;;;;;5005347;28;20507;-84
2020/12/11 04:24:25;;;;;;;20.73;14.95;;;1.30;90.60;;;;;;5002649;28;20551;-84
2020/12/11 04:26:51;;;;;;;24.35;16.35;;;1.30;90.60;;;;;;5004243;28;20022;-84
2020/12/11 04:29:16;;;;;;;22.60;16.50;;;1.30;90.60;;;;;;5011281;28;20499;-84
2020/12/11 04:31:42;;;;;;;21.50;15.25;;;1.30;90.60;;;;;;4983115;28;20080;-84
2020/12/11 04:34:08;;;;;;;22.77;15.27;;;1.20;90.60;;;;;;4992991;28;20061;-83
2020/12/11 04:36:34;;;;;;;21.98;15.35;;;1.30;90.60;;;;;;5003393;28;20495;-85
2020/12/11 04:38:59;;;;;;;22.67;15.67;;;1.30;90.60;;;;;;4999649;28;20389;-84
2020/12/11 04:41:28;;;;;;;19.17;14.70;;;1.30;90.70;;;;;;4992210;28;20068;-85
2020/12/11 04:43:56;;;;;;;22.65;16.30;;;1.30;90.70;;;;;;5004410;28;20104;-84
2020/12/11 04:46:28;;;;;;;22.23;15.82;;;1.30;90.70;;;;;;5010119;28;20483;-84
2020/12/11 04:48:55;;;;;;;21.85;15.57;;;1.30;90.70;;;;;;4990491;28;20033;-84
2020/12/11 04:51:23;;;;;;;23.13;16.37;;;1.30;90.70;;;;;;5011049;28;20415;-85
2020/12/11 04:53:52;;;;;;;24.63;16.80;;;1.30;90.70;;;;;;5000416;28;20069;-84
2020/12/11 04:56:21;;;;;;;27.60;18.65;;;1.30;90.70;;;;;;4991092;28;20033;-85
2020/12/11 04:58:50;;;;;;;23.73;17.27;;;1.30;90.70;;;;;;5001299;28;20117;-85
2020/12/11 05:01:32;;;;;;;24.83;16.90;;;1.30;90.70;;;;;;5008343;28;20165;-88
2020/12/11 05:03:59;;;;;;;26.50;17.38;;;1.30;90.80;;;;;;5011059;28;20025;-84
2020/12/11 05:06:28;;;;;;;24.80;17.00;;;1.30;90.80;;;;;;5007611;28;20036;-86
2020/12/11 05:09:14;;;;;;;23.90;17.05;;;1.30;90.80;;;;;;4995492;28;20088;-85
2020/12/11 05:11:41;;;;;;;25.38;17.13;;;1.30;90.80;;;;;;5007921;28;20181;-86
2020/12/11 05:14:20;;;;;;;23.37;16.37;;;1.40;90.80;;;;;;4996859;28;20030;-84
2020/12/11 05:17:03;;;;;;;28.02;18.10;;;1.30;90.80;;;;;;5021899;28;20177;-84
2020/12/11 05:19:31;;;;;;;24.03;17.53;;;1.30;90.80;;;;;;5003288;28;20026;-85
2020/12/11 05:22:15;;;;;;;23.38;15.65;;;1.30;90.80;;;;;;4992412;28;20027;-85
2020/12/11 05:24:46;;;;;;;24.58;16.48;;;1.40;90.80;;;;;;4997952;28;20492;-84
2020/12/11 05:27:34;;;;;;;23.98;16.13;;;1.40;90.80;;;;;;5007282;28;20116;-85
2020/12/11 05:30:07;;;;;;;27.93;16.23;;;1.40;90.80;;;;;;4999810;28;20069;-85
2020/12/11 05:32:41;;;;;;;24.77;16.13;;;1.40;90.80;;;;;;5009729;28;20030;-85
2020/12/11 05:35:31;;;;;;;24.17;17.10;;;1.40;90.80;;;;;;5000408;28;20431;-86
2020/12/11 05:38:02;;;;;;;21.67;15.98;;;1.40;90.90;;;;;;5010329;28;20029;-85
2020/12/11 05:40:41;;;;;;;22.08;15.25;;;1.40;90.90;;;;;;5002101;28;20049;-85
2020/12/11 05:43:13;;;;;;;22.95;15.80;;;1.40;90.90;;;;;;4991115;28;20395;-88
2020/12/11 05:45:59;;;;;;;22.15;15.50;;;1.40;90.90;;;;;;4996534;28;20042;-85
2020/12/11 05:48:39;;;;;;;22.50;15.68;;;1.50;90.90;;;;;;5012062;28;20434;-84
2020/12/11 05:51:16;;;;;;;26.27;17.90;;;1.50;90.90;;;;;;5010563;28;20092;-85
2020/12/11 05:53:44;;;;;;;23.73;16.85;;;1.50;90.90;;;;;;5010379;28;20021;-85
2020/12/11 05:56:10;;;;;;;25.52;16.83;;;1.50;90.90;;;;;;5004891;28;20031;-84
2020/12/11 05:58:36;;;;;;;25.20;16.60;;;1.60;90.90;;;;;;5000690;28;20034;-84
2020/12/11 06:01:02;;;;;;;22.88;16.75;;;1.60;90.90;;;;;;5010764;28;20076;-86
2020/12/11 06:03:28;;;;;;;23.95;17.05;;;1.60;90.90;;;;;;5011183;28;20117;-85
2020/12/11 06:05:59;;;;;;;21.85;15.88;;;1.60;90.90;;;;;;5004544;28;20118;-86
2020/12/11 06:08:28;;;;;;;27.95;19.63;;;1.60;90.90;;;;;;5008274;28;21466;-86
2020/12/11 06:10:54;;;;;;;23.77;16.08;;;1.60;90.90;;;;;;4996051;28;20042;-85
2020/12/11 06:13:52;;;;;;;22.17;15.88;;;1.70;90.90;;;;;;4997933;28;20038;-85
2020/12/11 06:16:20;;;;;;;23.63;16.08;;;1.70;90.90;;;;;;5001246;28;20037;-85
2020/12/11 06:18:52;;;;;;;25.30;17.98;;;1.70;90.90;;;;;;5008264;28;20150;-85
2020/12/11 06:21:19;;;;;;;23.38;16.48;;;1.70;90.90;;;;;;4997915;28;20054;-86
2020/12/11 06:23:45;;;;;;;19.67;14.40;;;1.70;90.70;;;;;;4981668;28;20030;-84
2020/12/11 06:26:15;;;;;;;20.60;14.82;;;1.80;90.90;;;;;;4985017;28;20045;-85
2020/12/11 06:28:50;;;;;;;20.38;14.45;;;1.80;90.90;;;;;;5007846;28;20148;-85
2020/12/11 06:31:16;;;;;;;22.42;15.10;;;1.80;90.90;;;;;;5012446;28;20124;-86
2020/12/11 06:33:45;;;;;;;20.95;14.75;;;1.80;90.90;;;;;;4986146;28;20464;-85
2020/12/11 06:36:11;;;;;;;21.42;14.93;;;1.80;90.90;;;;;;5002119;28;20038;-85
2020/12/11 06:38:40;;;;;;;22.13;15.40;;;1.80;90.90;;;;;;5005405;28;20041;-84
2020/12/11 06:41:05;;;;;;;21.25;14.77;;;1.90;90.90;;;;;;4994325;28;20423;-87
2020/12/11 06:43:42;;;;;;;23.80;16.15;;;1.90;90.80;;;;;;4992668;28;20034;-85
2020/12/11 06:46:23;;;;;;;23.88;16.38;;;1.90;90.80;;;;;;5008786;28;20022;-86
2020/12/11 06:49:17;;;;;;;27.30;18.65;;;1.90;90.80;;;;;;5005284;28;20026;-85
2020/12/11 06:51:51;;;;;;;24.38;17.02;;;1.90;90.70;;;;;;4998994;28;20052;-86
2020/12/11 06:54:23;;;;;;;21.45;15.30;;;1.90;91.00;;;;;;5006557;28;20038;-85
2020/12/11 06:56:50;;;;;;;;;;;1.90;90.70;;;;;;5006435;28;20031;-85
2020/12/11 06:59:23;;;;;;;21.77;15.00;;;2.00;90.80;;;;;;4994312;28;20415;-85
2020/12/11 07:02:14;;;;;;;19.48;13.80;;;1.90;90.70;;;;;;5003391;28;20026;-86
2020/12/11 07:04:41;;;;;;;19.27;13.77;;;2.00;90.80;;;;;;5014278;28;20025;-86
2020/12/11 07:07:12;;;;;;;18.45;13.43;;;2.00;90.80;;;;;;5014523;28;20042;-86
2020/12/11 07:09:42;;;;;;;19.67;14.07;;;2.00;90.80;;;;;;4996346;28;20034;-87
2020/12/11 07:12:08;;;;;;;20.13;14.55;;;2.00;90.70;;;;;;5013192;28;20029;-86
2020/12/11 07:14:34;;;;;;;19.92;14.13;;;2.00;90.70;;;;;;5003722;28;20076;-85
2020/12/11 07:17:00;;;;;;;19.70;13.90;;;2.00;90.70;;;;;;5012658;28;20034;-86
2020/12/11 07:19:43;;;;;;;20.83;14.75;;;2.10;90.70;;;;;;5020993;28;20356;-86
2020/12/11 07:22:13;;;;;;;20.98;14.38;;;2.10;90.70;;;;;;4996146;28;20419;-85
2020/12/11 07:24:39;;;;;;;19.92;14.32;;;2.10;90.70;;;;;;4992977;28;20045;-87
2020/12/11 07:27:08;;;;;;;19.75;14.00;;;2.10;90.70;;;;;;4993780;28;20037;-85
2020/12/11 07:29:34;;;;;;;22.42;14.88;;;2.10;90.70;;;;;;4994915;28;20125;-86
2020/12/11 07:32:00;;;;;;;20.15;14.15;;;2.10;90.70;;;;;;5006451;28;20113;-86
2020/12/11 07:34:32;;;;;;;19.65;14.23;;;2.10;90.70;;;;;;5011860;28;20026;-87
2020/12/11 07:36:58;;;;;;;21.42;15.35;;;2.10;90.70;;;;;;5007361;28;20033;-84
2020/12/11 07:39:31;;;;;;;20.40;14.63;;;2.20;90.70;;;;;;5032726;28;20484;-85
2020/12/11 07:42:02;;;;;;;17.33;12.77;;;2.10;90.60;;;;;;5031377;28;20486;-85
2020/12/11 07:44:32;;;;;;;18.70;13.25;;;2.20;90.60;;;;;;5010744;28;20045;-85
2020/12/11 07:47:02;;;;;;;21.48;14.57;;;2.20;90.60;;;;;;4987038;28;20030;-84
2020/12/11 07:49:46;;;;;;;20.35;13.82;;;2.20;90.60;;;;;;5007465;28;20120;-86
2020/12/11 07:52:24;;;;;;;19.42;13.50;;;2.20;90.60;;;;;;5008983;28;20058;-86
2020/12/11 07:54:52;;;;;;;20.52;13.75;;;2.20;90.60;;;;;;4994056;28;20029;-84
2020/12/11 07:57:22;;;;;;;19.80;13.80;;;2.20;90.60;;;;;;5012403;28;20037;-84
2020/12/11 08:00:13;;;;;;;20.38;14.82;;;2.30;90.50;;;;;;5005416;28;20041;-84
2020/12/11 08:02:39;;;;;;;20.98;14.43;;;2.30;90.50;;;;;;5009829;28;20040;-85
2020/12/11 08:05:06;;;;;;;22.42;14.60;;;2.20;90.50;;;;;;5004590;28;20022;-84
2020/12/11 08:07:35;;;;;;;20.17;14.00;;;2.30;90.50;;;;;;5008932;28;20022;-84
2020/12/11 08:10:16;;;;;;;24.58;15.52;;;2.30;90.50;;;;;;5011658;28;20029;-85
2020/12/11 08:12:55;;;;;;;;;;;;;;;;;;;;;
2020/12/11 08:15:35;;;;;;;23.35;15.95;;;2.30;90.40;;;;;;5008705;28;20033;-85
2020/12/11 08:18:24;;;;;;;22.02;15.55;;;2.30;90.40;;;;;;4992754;28;20053;-84
2020/12/11 08:20:58;;;;;;;23.25;15.50;;;2.30;90.40;;;;;;4988259;28;20096;-85
2020/12/11 08:23:41;;;;;;;22.65;15.25;;;2.30;90.30;;;;;;4999153;28;20145;-85
2020/12/11 08:26:11;;;;;;;21.38;15.30;;;2.40;90.40;;;;;;4996605;28;20029;-84
2020/12/11 08:28:43;;;;;;;18.88;14.30;;;2.40;90.40;;;;;;5008593;28;20415;-86
2020/12/11 08:31:22;;;;;;;19.25;14.05;;;2.40;90.30;;;;;;4993785;28;20037;-88
2020/12/11 08:34:09;;;;;;;20.42;14.43;;;2.40;90.40;;;;;;5006527;28;20037;-85
2020/12/11 08:36:44;;;;;;;20.23;14.27;;;2.40;90.30;;;;;;5001166;28;20069;-87
2020/12/11 08:39:13;;;;;;;19.85;14.23;;;2.40;90.30;;;;;;5002707;28;20029;-84
2020/12/11 08:41:47;;;;;;;18.30;13.63;;;2.40;90.30;;;;;;4999070;28;20041;-83
2020/12/11 08:44:16;;;;;;;21.13;15.20;;;2.40;90.30;;;;;;5008543;28;20038;-84
2020/12/11 08:49:29;;;;;;;19.42;12.80;;;2.40;90.20;;;;;;5012394;28;20128;-85
2020/12/11 08:51:56;;;;;;;20.92;14.73;;;2.50;90.30;;;;;;5007801;28;20026;-86
2020/12/11 08:54:52;;;;;;;;;;;;;;;;;;;;;
2020/12/11 08:57:29;;;;;;;19.13;13.65;;;2.50;90.30;;;;;;5007482;28;20030;-85
2020/12/11 08:59:57;;;;;;;19.77;14.02;;;2.50;90.30;;;;;;4992317;28;20080;-87
2020/12/11 09:02:29;;;;;;;20.50;14.75;;;2.50;90.30;;;;;;5002934;28;20486;-85
2020/12/11 09:05:14;;;;;;;18.33;13.02;;;2.50;90.30;;;;;;5005956;28;20125;-84
2020/12/11 09:07:45;;;;;;;18.08;13.50;;;2.50;90.30;;;;;;5003330;28;20057;-84
2020/12/11 09:10:12;;;;;;;18.20;13.25;;;2.60;90.30;;;;;;5008377;28;20058;-84
2020/12/11 09:12:37;;;;;;;19.10;13.10;;;2.60;90.30;;;;;;5000136;28;20030;-89
2020/12/11 09:15:11;;;;;;;18.17;13.10;;;2.60;90.30;;;;;;5006335;28;20551;-87
2020/12/11 09:17:36;;;;;;;18.65;13.57;;;2.60;90.30;;;;;;5005130;28;20126;-84
2020/12/11 09:20:05;;;;;;;19.75;14.63;;;2.60;90.30;;;;;;4996490;28;20041;-83
2020/12/11 09:22:35;;;;;;;20.08;14.10;;;2.60;90.30;;;;;;5007176;28;20040;-85
2020/12/11 09:25:02;;;;;;;21.90;14.93;;;2.60;90.30;;;;;;5012438;28;20479;-85
2020/12/11 09:27:30;;;;;;;19.92;14.10;;;2.60;90.40;;;;;;5013950;28;20029;-84
2020/12/11 09:30:08;;;;;;;21.25;14.20;;;2.60;90.50;;;;;;4998366;28;20026;-84
2020/12/11 09:32:49;;;;;;;18.42;13.23;;;2.60;90.50;;;;;;5012672;28;20026;-87
2020/12/11 09:35:15;;;;;;;19.58;14.10;;;2.60;90.60;;;;;;5011787;28;20022;-84
2020/12/11 09:37:49;;;;;;;19.10;13.60;;;2.70;90.60;;;;;;5038276;28;20384;-84
2020/12/11 09:41:11;;;;;;;18.52;13.80;;;2.70;90.70;;;;;;5002160;28;20483;-83
2020/12/11 09:48:59;;;;;;;19.92;14.15;;;2.80;90.80;;;;;;4975391;28;20030;-85
2020/12/11 09:54:23;;;;;;;16.20;12.10;;;2.80;90.70;;;;;;4996046;28;20061;-85
2020/12/11 09:56:54;;;;;;;18.02;13.25;;;2.80;90.70;;;;;;5001321;28;20391;-85
2020/12/11 09:59:28;;;;;;;17.47;12.67;;;2.80;90.70;;;;;;4992149;28;20034;-84
2020/12/11 10:05:04;;;;;;;19.20;13.05;;;2.90;90.80;;;;;;5008371;28;20121;-86
2020/12/11 10:07:39;;;;;;;17.60;13.45;;;2.90;90.80;;;;;;5007611;28;20022;-85
2020/12/11 10:10:07;;;;;;;16.95;13.23;;;2.90;90.80;;;;;;5001376;28;20030;-84
2020/12/11 10:12:33;;;;;;;20.42;14.38;;;3.00;90.80;;;;;;5002913;28;20027;-83
2020/12/11 10:15:05;;;;;;;18.33;13.77;;;3.00;90.80;;;;;;4999269;28;20026;-84
2020/12/11 10:17:31;;;;;;;17.58;12.98;;;3.00;90.80;;;;;;4996479;28;20038;-84
2020/12/11 10:19:57;;;;;;;20.23;13.75;;;3.00;90.80;;;;;;4996331;28;20441;-83
2020/12/11 10:22:23;;;;;;;21.52;15.52;;;3.00;90.80;;;;;;4999487;28;20472;-87
2020/12/11 10:24:48;;;;;;;19.02;14.38;;;3.10;90.80;;;;;;5002279;28;20129;-85
2020/12/11 10:27:24;;;;;;;19.25;13.70;;;3.10;90.80;;;;;;4999922;28;20037;-85
2020/12/11 10:29:53;;;;;;;17.73;13.50;;;3.10;90.80;;;;;;5009763;28;20049;-85
2020/12/11 10:32:19;;;;;;;19.83;14.45;;;3.10;90.80;;;;;;5000440;28;20145;-86
2020/12/11 10:34:44;;;;;;;18.60;14.27;;;3.20;90.80;;;;;;5009503;28;20519;-86
2020/12/11 10:37:14;;;;;;;20.25;14.38;;;3.20;90.80;;;;;;5001219;28;20101;-85
2020/12/11 10:39:40;;;;;;;18.30;14.13;;;3.20;90.80;;;;;;5002755;28;20034;-85
2020/12/11 10:42:10;;;;;;;18.15;13.40;;;3.20;90.70;;;;;;5011542;28;20036;-85
2020/12/11 10:44:41;;;;;;;18.60;14.73;;;3.20;90.70;;;;;;4991316;28;20491;-84
2020/12/11 10:47:12;;;;;;;18.65;13.52;;;3.30;90.70;;;;;;5002312;28;20028;-86
2020/12/11 10:49:40;;;;;;;19.60;14.23;;;3.30;90.70;;;;;;4998618;28;20057;-85
2020/12/11 10:52:14;;;;;;;18.13;13.30;;;3.30;90.70;;;;;;5001420;28;20035;-85
2020/12/11 10:54:40;;;;;;;16.48;12.73;;;3.40;90.80;;;;;;5041598;28;20030;-85
2020/12/11 10:57:08;;;;;;;16.80;12.35;;;3.40;90.80;;;;;;5006420;28;20050;-85
2020/12/11 10:59:34;;;;;;;18.00;12.65;;;3.40;90.80;;;;;;5002613;28;20041;-85
2020/12/11 11:02:21;;;;;;;18.98;13.23;;;3.40;90.80;;;;;;5009000;28;20384;-84
2020/12/11 11:04:56;;;;;;;18.23;12.45;;;3.40;90.80;;;;;;4988385;28;20034;-83
2020/12/11 11:07:26;;;;;;;18.23;13.00;;;3.50;90.90;;;;;;5006789;28;20022;-84
2020/12/11 11:12:27;;;;;;;14.90;11.93;;;3.40;90.90;;;;;;4998111;28;20125;-85
2020/12/11 11:27:43;;;;;;;17.77;12.52;;;3.50;91.10;;;;;;5008832;28;20038;-87
2020/12/11 11:30:11;;;;;;;16.67;12.30;;;3.60;91.20;;;;;;4994623;28;20034;-85
2020/12/11 11:32:37;;;;;;;14.63;11.93;;;3.60;91.20;;;;;;5004939;28;20022;-86
2020/12/11 11:35:06;;;;;;;14.50;11.50;;;3.60;91.20;;;;;;5005916;28;20029;-84
2020/12/11 11:37:37;;;;;;;15.77;11.52;;;3.70;91.20;;;;;;4999094;28;20411;-86
2020/12/11 11:40:06;;;;;;;15.95;11.95;;;3.70;91.20;;;;;;5000421;28;20467;-84
2020/12/11 11:42:35;;;;;;;13.95;10.95;;;3.70;91.20;;;;;;5034164;28;20022;-86
2020/12/11 11:45:05;;;;;;;18.55;13.93;;;3.70;91.20;;;;;;5002846;28;20021;-85
2020/12/11 11:47:34;;;;;;;19.77;14.35;;;3.70;91.30;;;;;;5010022;28;20069;-87
2020/12/11 11:52:41;;;;;;;18.90;13.55;;;3.70;91.30;;;;;;5004558;28;20113;-84
2020/12/11 11:55:11;;;;;;;19.48;14.18;;;3.70;91.30;;;;;;4994007;28;20038;-85
2020/12/11 11:57:43;;;;;;;16.75;12.88;;;3.70;91.30;;;;;;5001144;28;20034;-86
2020/12/11 12:00:38;;;;;;;;;;;;;;;;;;;;;
2020/12/11 12:03:15;;;;;;;19.42;13.25;;;3.70;91.40;;;;;;5008804;28;20372;-88
2020/12/11 12:05:47;;;;;;;15.65;12.27;;;3.70;91.40;;;;;;5012230;28;20081;-86
2020/12/11 12:08:29;;;;;;;;;;;3.70;91.50;;;;;;5009040;28;20072;-87
2020/12/11 12:10:58;;;;;;;15.55;10.80;;;3.80;91.50;;;;;;5022757;28;19925;-84
2020/12/11 12:13:39;;;;;;;;;;;;;;;;;;;;;
2020/12/11 12:16:35;;;;;;;;;;;;;;;;;;;;;
2020/12/11 12:19:06;;;;;;;17.45;12.90;;;3.80;91.60;;;;;;4992871;28;20046;-85
2020/12/11 12:30:34;;;;;;;17.08;12.60;;;3.80;91.70;;;;;;4945381;28;20126;-86
2020/12/11 12:36:24;;;;;;;15.98;12.02;;;3.90;91.80;;;;;;4987605;28;20157;-85
2020/12/11 12:39:01;;;;;;;17.95;13.55;;;3.90;91.80;;;;;;5007575;28;20030;-86
2020/12/11 12:44:16;;;;;;;15.68;11.63;;;3.90;91.90;;;;;;4998338;28;20441;-85
2020/12/11 12:46:48;;;;;;;16.88;12.38;;;3.90;91.90;;;;;;4992672;28;20113;-85
2020/12/11 12:49:22;;;;;;;;;;;3.90;91.90;;;;;;4997637;28;20037;-85
2020/12/11 12:52:06;;;;;;;13.93;11.07;;;3.90;91.90;;;;;;5003556;28;19910;-85
2020/12/11 12:54:34;;;;;;;16.52;12.23;;;3.90;91.90;;;;;;5002602;28;20129;-86
2020/12/11 12:57:06;;;;;;;16.85;12.23;;;4.00;92.00;;;;;;4997699;28;20026;-86
2020/12/11 13:04:43;;;;;;;14.88;10.25;;;4.00;92.00;;;;;;5006828;28;20030;-86
2020/12/11 13:07:08;;;;;;;13.75;10.43;;;4.00;92.00;;;;;;4996843;28;20412;-85
2020/12/11 13:09:41;;;;;;;13.52;10.25;;;4.10;92.00;;;;;;4996558;28;20045;-85
2020/12/11 13:12:15;;;;;;;14.60;10.57;;;4.10;92.00;;;;;;5009036;28;20575;-86
2020/12/11 13:14:43;;;;;;;13.85;10.88;;;4.10;92.00;;;;;;5001113;28;20022;-85
2020/12/11 13:17:10;;;;;;;13.77;10.60;;;4.10;92.00;;;;;;5010765;28;20516;-85
2020/12/11 13:19:45;;;;;;;13.35;10.82;;;4.10;92.00;;;;;;4999718;28;20092;-84
2020/12/11 13:27:44;;;;;;;12.75;9.70;;;4.10;92.00;;;;;;5014536;28;20088;-87
2020/12/11 13:30:13;;;;;;;12.70;9.43;;;4.10;92.00;;;;;;5005657;28;20038;-89
2020/12/11 13:32:42;;;;;;;12.05;9.57;;;4.10;92.00;;;;;;5013365;28;20180;-85
2020/12/11 13:35:27;;;;;;;12.15;9.23;;;4.20;92.10;;;;;;5013767;28;20069;-86
2020/12/11 13:37:56;;;;;;;12.50;9.30;;;4.20;92.10;;;;;;4990398;28;20034;-85
2020/12/11 13:40:22;;;;;;;13.07;9.45;;;4.20;92.10;;;;;;5012292;28;20041;-86
2020/12/11 13:42:47;;;;;;;13.30;9.18;;;4.20;92.10;;;;;;5013330;28;20018;-86
2020/12/11 13:47:59;;;;;;;14.05;10.18;;;4.20;92.10;;;;;;5002065;28;20046;-86
2020/12/11 13:50:25;;;;;;;12.88;8.68;;;4.30;92.10;;;;;;4994910;28;20031;-85
2020/12/11 13:52:56;;;;;;;11.43;8.25;;;4.30;92.10;;;;;;5004113;28;20040;-87
2020/12/11 13:55:22;;;;;;;11.93;8.65;;;4.30;92.10;;;;;;5004425;28;20054;-86
2020/12/11 13:58:03;;;;;;;;;;;;;;;;;;;;;
2020/12/11 14:00:32;;;;;;;12.52;9.13;;;4.30;92.10;;;;;;5004919;28;20090;-85
2020/12/11 14:03:09;;;;;;;11.25;8.82;;;4.30;92.10;;;;;;5006921;28;20030;-85